createdAt,value
2019-05-26T00:01:35.263Z,71.10
2019-05-26T00:04:04.851Z,70.73
2019-05-26T00:06:34.566Z,71.70
2019-05-26T00:09:05.700Z,71.66
2019-05-26T00:11:35.286Z,71.18
2019-05-26T00:14:05.015Z,70.81
2019-05-26T00:16:34.576Z,71.15
2019-05-26T00:19:04.167Z,71.75
2019-05-26T00:21:33.805Z,71.34
2019-05-26T00:24:03.388Z,71.70
2019-05-26T00:26:33.115Z,72.29
2019-05-26T00:29:02.720Z,73.04
2019-05-26T00:31:32.360Z,73.38
2019-05-26T00:34:01.902Z,73.59
2019-05-26T00:36:34.012Z,73.69
2019-05-26T00:39:04.497Z,73.76
2019-05-26T00:41:34.229Z,73.70
2019-05-26T00:44:03.934Z,73.28
2019-05-26T00:46:35.339Z,73.80
2019-05-26T00:49:05.106Z,73.61
2019-05-26T00:51:34.758Z,74.11
2019-05-26T00:54:05.526Z,74.64
2019-05-26T00:56:35.631Z,73.49
2019-05-26T00:59:05.464Z,73.00
2019-05-26T01:01:35.025Z,72.94
2019-05-26T01:04:04.692Z,73.37
2019-05-26T01:06:34.297Z,73.66
2019-05-26T01:09:08.722Z,73.56
2019-05-26T01:11:38.244Z,73.14
2019-05-26T01:14:08.147Z,73.61
2019-05-26T01:16:37.788Z,73.82
2019-05-26T01:19:07.444Z,74.33
2019-05-26T01:21:37.025Z,73.95
2019-05-26T01:24:06.877Z,74.73
2019-05-26T01:26:36.854Z,74.13
2019-05-26T01:29:06.515Z,74.14
2019-05-26T01:31:38.989Z,74.94
2019-05-26T01:34:08.598Z,76.34
2019-05-26T01:36:38.527Z,75.73
2019-05-26T01:39:09.217Z,75.75
2019-05-26T01:41:38.719Z,75.83
2019-05-26T01:44:08.222Z,76.63
2019-05-26T01:46:37.915Z,77.27
2019-05-26T01:49:07.637Z,77.30
2019-05-26T01:51:37.254Z,76.78
2019-05-26T01:54:07.042Z,77.31
2019-05-26T01:56:36.556Z,77.67
2019-05-26T01:59:07.916Z,77.43
2019-05-26T02:01:37.542Z,78.46
2019-05-26T02:04:07.124Z,78.42
2019-05-26T02:06:36.664Z,77.92
2019-05-26T02:09:09.000Z,78.24
2019-05-26T02:11:38.607Z,78.83
2019-05-26T02:14:08.333Z,79.66
2019-05-26T02:16:37.871Z,80.30
2019-05-26T02:19:07.459Z,80.47
2019-05-26T02:21:38.695Z,80.10
2019-05-26T02:24:08.375Z,80.42
2019-05-26T02:26:37.904Z,80.02
2019-05-26T02:29:07.416Z,79.87
2019-05-26T02:31:37.264Z,80.10
2019-05-26T02:34:06.844Z,80.41
2019-05-26T02:36:36.361Z,80.49
2019-05-26T02:39:09.031Z,80.34
2019-05-26T02:41:38.670Z,80.74
2019-05-26T02:44:08.345Z,81.04
2019-05-26T02:46:38.336Z,81.30
2019-05-26T02:49:08.001Z,81.07
2019-05-26T02:51:37.692Z,81.43
2019-05-26T02:54:09.967Z,81.06
2019-05-26T02:56:41.109Z,80.65
2019-05-26T02:59:10.773Z,80.96
2019-05-26T03:02:01.225Z,80.85
2019-05-26T03:04:13.935Z,80.40
2019-05-26T03:06:47.165Z,80.26
2019-05-26T03:09:23.196Z,80.98
2019-05-26T03:11:53.840Z,80.99
2019-05-26T03:14:25.183Z,81.02
2019-05-26T03:16:59.759Z,81.59
2019-05-26T03:19:30.328Z,81.92
2019-05-26T03:22:01.286Z,81.20
2019-05-26T03:24:33.561Z,83.00
2019-05-26T03:27:03.567Z,82.80
2019-05-26T03:29:33.212Z,81.96
2019-05-26T03:32:03.893Z,81.43
2019-05-26T03:34:33.405Z,81.32
2019-05-26T03:37:02.918Z,81.28
2019-05-26T03:39:44.431Z,80.99
2019-05-26T03:42:05.362Z,80.43
2019-05-26T03:44:34.966Z,80.80
2019-05-26T03:47:04.629Z,80.61
2019-05-26T03:49:34.153Z,79.90
2019-05-26T03:52:03.788Z,80.62
2019-05-26T03:54:33.442Z,80.27
2019-05-26T03:57:03.249Z,80.73
2019-05-26T03:59:32.868Z,80.60
2019-05-26T04:02:02.509Z,81.21
2019-05-26T04:04:32.418Z,80.50
2019-05-26T04:07:02.006Z,81.14
2019-05-26T04:09:31.669Z,81.49
2019-05-26T04:12:02.134Z,80.92
2019-05-26T04:14:31.664Z,80.39
2019-05-26T04:17:01.257Z,80.91
2019-05-26T04:19:30.970Z,79.72
2019-05-26T04:22:00.902Z,79.40
2019-05-26T04:24:30.628Z,80.35
2019-05-26T04:27:00.217Z,80.31
2019-05-26T04:29:29.855Z,79.62
2019-05-26T04:32:02.042Z,79.59
2019-05-26T04:34:30.918Z,79.52
2019-05-26T04:37:00.532Z,80.01
2019-05-26T04:39:30.185Z,79.61
2019-05-26T04:41:59.759Z,79.96
2019-05-26T04:44:29.265Z,78.88
2019-05-26T04:46:58.904Z,78.11
2019-05-26T04:49:31.592Z,78.15
2019-05-26T04:52:01.366Z,78.91
2019-05-26T04:54:30.969Z,78.87
2019-05-26T04:57:00.583Z,78.39
2019-05-26T04:59:30.152Z,77.47
2019-05-26T05:01:59.708Z,77.06
2019-05-26T05:04:29.422Z,76.68
2019-05-26T05:06:59.058Z,76.63
2019-05-26T05:09:28.673Z,76.84
2019-05-26T05:11:58.354Z,76.36
2019-05-26T05:14:31.004Z,75.95
2019-05-26T05:17:01.897Z,76.04
2019-05-26T05:19:31.430Z,76.86
2019-05-26T05:22:01.074Z,76.38
2019-05-26T05:24:31.522Z,75.34
2019-05-26T05:27:01.092Z,74.08
2019-05-26T05:29:30.728Z,74.20
2019-05-26T05:32:00.698Z,74.24
2019-05-26T05:34:30.298Z,73.03
2019-05-26T05:37:00.287Z,72.18
2019-05-26T05:39:29.955Z,72.73
2019-05-26T05:41:59.487Z,71.98
2019-05-26T05:44:29.497Z,71.11
2019-05-26T05:46:59.237Z,71.47
2019-05-26T05:49:28.814Z,71.71
2019-05-26T05:51:58.425Z,71.11
2019-05-26T05:54:28.165Z,70.44
2019-05-26T05:56:57.844Z,69.75
2019-05-26T05:59:27.519Z,69.43
2019-05-26T06:01:57.183Z,69.19
2019-05-26T06:04:26.799Z,68.17
2019-05-26T06:06:56.339Z,66.83
2019-05-26T06:09:26.003Z,66.24
2019-05-26T06:11:57.106Z,66.39
2019-05-26T06:14:26.805Z,65.15
2019-05-26T06:16:56.429Z,63.93
2019-05-26T06:19:25.973Z,63.58
2019-05-26T06:21:55.625Z,63.08
2019-05-26T06:24:25.411Z,61.87
2019-05-26T06:26:55.009Z,62.15
2019-05-26T06:29:24.784Z,60.95
2019-05-26T06:31:55.365Z,60.95
2019-05-26T06:34:25.411Z,60.08
2019-05-26T06:36:55.934Z,60.24
2019-05-26T06:39:25.622Z,61.69
2019-05-26T06:41:55.301Z,61.91
2019-05-26T06:44:24.965Z,61.82
2019-05-26T06:46:54.734Z,61.21
2019-05-26T06:49:24.359Z,59.82
2019-05-26T06:51:54.022Z,58.88
2019-05-26T06:54:23.874Z,58.40
2019-05-26T06:56:53.397Z,58.83
2019-05-26T06:59:22.910Z,57.86
2019-05-26T07:01:52.684Z,57.05
2019-05-26T07:04:22.517Z,56.88
2019-05-26T07:06:52.168Z,57.89
2019-05-26T07:09:22.228Z,58.26
2019-05-26T07:11:59.092Z,57.87
2019-05-26T07:14:23.061Z,58.42
2019-05-26T07:16:52.780Z,56.89
2019-05-26T07:19:22.362Z,56.62
2019-05-26T07:21:52.045Z,56.47
2019-05-26T07:24:21.771Z,56.83
2019-05-26T07:26:51.520Z,56.67
2019-05-26T07:29:21.222Z,56.07
2019-05-26T07:31:51.542Z,55.48
2019-05-26T07:34:21.472Z,55.38
2019-05-26T07:36:51.064Z,56.14
2019-05-26T07:39:20.726Z,53.61
2019-05-26T07:42:08.246Z,53.20
2019-05-26T07:44:21.581Z,54.11
2019-05-26T07:46:51.109Z,53.43
2019-05-26T07:49:20.686Z,54.20
2019-05-26T07:51:50.354Z,53.79
2019-05-26T07:54:25.449Z,54.15
2019-05-26T07:56:52.316Z,55.06
2019-05-26T07:59:21.817Z,55.36
2019-05-26T08:01:52.475Z,54.65
2019-05-26T08:04:22.240Z,53.78
2019-05-26T08:06:51.876Z,52.98
2019-05-26T08:09:22.781Z,52.46
2019-05-26T08:11:52.381Z,52.65
2019-05-26T08:14:22.099Z,51.78
2019-05-26T08:16:51.795Z,51.88
2019-05-26T08:19:22.821Z,50.87
2019-05-26T08:21:54.546Z,49.51
2019-05-26T08:24:24.599Z,49.51
2019-05-26T08:26:54.265Z,49.49
2019-05-26T08:29:23.954Z,51.05
2019-05-26T08:31:53.562Z,50.97
2019-05-26T08:34:23.146Z,49.87
2019-05-26T08:36:52.867Z,48.45
2019-05-26T08:39:22.474Z,47.97
2019-05-26T08:41:52.010Z,48.08
2019-05-26T08:44:21.681Z,47.58
2019-05-26T08:46:51.770Z,47.34
2019-05-26T08:49:21.364Z,47.59
2019-05-26T08:51:50.960Z,46.71
2019-05-26T08:54:20.720Z,47.34
2019-05-26T08:56:50.326Z,46.61
2019-05-26T08:59:20.454Z,46.96
2019-05-26T09:01:50.296Z,47.95
2019-05-26T09:04:19.891Z,47.80
2019-05-26T09:06:49.516Z,47.32
2019-05-26T09:09:19.372Z,46.53
2019-05-26T09:11:48.963Z,47.62
2019-05-26T09:14:18.488Z,47.14
2019-05-26T09:16:48.018Z,46.88
2019-05-26T09:19:17.538Z,47.41
2019-05-26T09:21:47.037Z,46.96
2019-05-26T09:24:16.595Z,47.05
2019-05-26T09:26:47.305Z,46.37
2019-05-26T09:29:17.144Z,47.36
2019-05-26T09:31:47.307Z,46.58
2019-05-26T09:34:16.955Z,46.86
2019-05-26T09:36:46.480Z,47.50
2019-05-26T09:39:16.093Z,48.49
2019-05-26T09:41:45.596Z,47.41
2019-05-26T09:44:15.521Z,47.86
2019-05-26T09:46:45.284Z,47.12
2019-05-26T09:49:15.193Z,46.93
2019-05-26T09:51:44.709Z,46.95
2019-05-26T09:54:14.407Z,47.81
2019-05-26T09:56:44.058Z,47.97
2019-05-26T09:59:13.946Z,47.94
2019-05-26T10:01:43.718Z,47.34
2019-05-26T10:04:13.264Z,46.97
2019-05-26T10:06:42.804Z,46.26
2019-05-26T10:09:12.970Z,45.14
2019-05-26T10:11:42.578Z,45.56
2019-05-26T10:14:12.234Z,45.72
2019-05-26T10:16:42.371Z,46.26
2019-05-26T10:19:12.095Z,46.25
2019-05-26T10:21:41.668Z,45.93
2019-05-26T10:24:11.379Z,45.70
2019-05-26T10:26:40.918Z,46.46
2019-05-26T10:29:10.912Z,46.67
2019-05-26T10:31:40.568Z,46.57
2019-05-26T10:34:13.493Z,46.62
2019-05-26T10:36:41.594Z,45.98
2019-05-26T10:39:11.565Z,45.33
2019-05-26T10:41:41.380Z,44.85
2019-05-26T10:44:11.055Z,47.28
2019-05-26T10:46:40.964Z,47.13
2019-05-26T10:49:10.728Z,46.71
2019-05-26T10:51:40.461Z,47.29
2019-05-26T10:54:10.166Z,47.42
2019-05-26T10:56:40.039Z,47.93
2019-05-26T10:59:10.438Z,48.46
2019-05-26T11:01:40.274Z,48.45
2019-05-26T11:04:10.001Z,48.59
2019-05-26T11:06:39.791Z,48.47
2019-05-26T11:09:10.003Z,48.61
2019-05-26T11:11:39.657Z,48.34
2019-05-26T11:14:09.499Z,48.14
2019-05-26T11:16:39.363Z,48.10
2019-05-26T11:19:09.046Z,48.27
2019-05-26T11:21:38.567Z,48.97
2019-05-26T11:24:09.804Z,48.31
2019-05-26T11:26:39.561Z,46.33
2019-05-26T11:29:09.335Z,45.25
2019-05-26T11:31:39.009Z,45.04
2019-05-26T11:34:08.716Z,47.00
2019-05-26T11:36:38.304Z,46.52
2019-05-26T11:39:08.946Z,47.61
2019-05-26T11:41:38.633Z,46.78
2019-05-26T11:44:17.698Z,46.79
2019-05-26T11:46:39.686Z,45.42
2019-05-26T11:49:09.326Z,45.66
2019-05-26T11:51:38.946Z,44.99
2019-05-26T11:54:08.576Z,45.67
2019-05-26T11:56:38.106Z,46.47
2019-05-26T11:59:07.741Z,45.28
2019-05-26T12:01:37.398Z,44.62
2019-05-26T12:04:07.061Z,46.59
2019-05-26T12:06:36.927Z,47.05
2019-05-26T12:09:11.708Z,48.16
2019-05-26T12:11:41.230Z,45.77
2019-05-26T12:14:10.890Z,45.31
2019-05-26T12:16:40.474Z,45.12
2019-05-26T12:19:11.617Z,44.33
2019-05-26T12:21:41.183Z,43.32
2019-05-26T12:24:10.873Z,42.53
2019-05-26T12:26:40.495Z,41.52
2019-05-26T12:29:10.111Z,42.90
2019-05-26T12:31:40.714Z,43.10
2019-05-26T12:34:10.310Z,43.55
2019-05-26T12:36:40.189Z,44.48
2019-05-26T12:39:10.594Z,44.54
2019-05-26T12:41:40.256Z,43.05
2019-05-26T12:44:11.035Z,42.25
2019-05-26T12:46:40.736Z,43.15
2019-05-26T12:49:10.410Z,42.14
2019-05-26T12:51:40.140Z,42.50
2019-05-26T12:54:10.306Z,43.63
2019-05-26T12:56:40.911Z,43.44
2019-05-26T12:59:10.569Z,43.23
2019-05-26T13:01:40.295Z,43.02
2019-05-26T13:04:10.624Z,42.47
2019-05-26T13:06:40.220Z,42.76
2019-05-26T13:09:12.472Z,41.75
2019-05-26T13:11:42.162Z,41.51
2019-05-26T13:14:11.829Z,40.68
2019-05-26T13:16:41.406Z,40.54
2019-05-26T13:19:11.137Z,40.22
2019-05-26T13:21:40.795Z,39.53
2019-05-26T13:24:10.417Z,39.32
2019-05-26T13:26:39.954Z,40.37
2019-05-26T13:29:10.093Z,40.98
2019-05-26T13:31:41.694Z,40.73
2019-05-26T13:34:11.446Z,40.42
2019-05-26T13:36:41.057Z,40.29
2019-05-26T13:39:10.840Z,39.54
2019-05-26T13:41:40.400Z,39.04
2019-05-26T13:44:10.061Z,39.13
2019-05-26T13:46:39.703Z,39.25
2019-05-26T13:49:28.628Z,38.94
2019-05-26T13:51:59.228Z,38.72
2019-05-26T13:54:29.091Z,38.46
2019-05-26T13:56:58.655Z,39.03
2019-05-26T13:59:28.433Z,39.11
2019-05-26T14:01:57.995Z,39.00
2019-05-26T14:04:27.537Z,39.38
2019-05-26T14:06:57.157Z,38.86
2019-05-26T14:09:27.031Z,39.52
2019-05-26T14:11:56.760Z,39.42
2019-05-26T14:14:28.077Z,38.90
2019-05-26T14:16:59.800Z,38.80
2019-05-26T14:19:49.116Z,39.82
2019-05-26T14:22:21.364Z,39.29
2019-05-26T14:24:54.203Z,40.00
2019-05-26T14:27:22.478Z,39.65
2019-05-26T14:29:52.249Z,38.82
2019-05-26T14:32:23.449Z,38.38
2019-05-26T14:34:58.821Z,38.81
2019-05-26T14:37:28.412Z,38.37
2019-05-26T14:39:57.985Z,39.14
2019-05-26T14:42:27.632Z,39.96
2019-05-26T14:44:57.294Z,39.20
2019-05-26T14:47:27.023Z,39.65
2019-05-26T14:49:56.769Z,40.94
2019-05-26T14:52:26.370Z,41.64
2019-05-26T14:54:58.705Z,41.22
2019-05-26T14:57:30.909Z,40.75
2019-05-26T14:59:59.767Z,40.50
2019-05-26T15:02:29.334Z,40.51
2019-05-26T15:04:58.965Z,40.52
2019-05-26T15:07:28.694Z,40.75
2019-05-26T15:09:58.307Z,41.85
2019-05-26T15:12:27.928Z,42.21
2019-05-26T15:14:57.599Z,42.67
2019-05-26T15:17:27.334Z,42.38
2019-05-26T15:19:57.320Z,42.66
2019-05-26T15:22:27.126Z,42.76
2019-05-26T15:24:56.763Z,42.62
2019-05-26T15:27:26.520Z,42.19
2019-05-26T15:29:58.055Z,42.76
2019-05-26T15:32:27.814Z,42.92
2019-05-26T15:35:01.412Z,42.97
2019-05-26T15:37:31.589Z,43.86
2019-05-26T15:40:01.623Z,44.04
2019-05-26T15:42:31.250Z,43.84
2019-05-26T15:45:00.986Z,43.99
2019-05-26T15:47:31.289Z,44.43
2019-05-26T15:50:00.930Z,45.54
2019-05-26T15:52:30.692Z,47.58
2019-05-26T15:55:00.372Z,47.16
2019-05-26T15:57:30.070Z,46.82
2019-05-26T15:59:59.827Z,47.28
2019-05-26T16:02:29.528Z,47.50
2019-05-26T16:04:59.354Z,47.46
2019-05-26T16:07:29.021Z,46.62
2019-05-26T16:09:58.690Z,45.71
2019-05-26T16:12:28.373Z,45.24
2019-05-26T16:15:00.677Z,44.52
2019-05-26T16:17:30.438Z,43.71
2019-05-26T16:20:00.203Z,42.69
2019-05-26T16:22:29.803Z,43.66
2019-05-26T16:24:59.339Z,43.16
2019-05-26T16:27:28.963Z,42.81
2019-05-26T16:29:58.520Z,42.61
2019-05-26T16:32:30.595Z,42.55
2019-05-26T16:35:00.673Z,43.27
2019-05-26T16:37:31.587Z,43.38
2019-05-26T16:40:01.447Z,44.22
2019-05-26T16:42:31.251Z,43.91
2019-05-26T16:45:00.852Z,45.00
2019-05-26T16:47:30.350Z,44.66
2019-05-26T16:49:59.981Z,45.04
2019-05-26T16:52:29.517Z,44.93
2019-05-26T16:54:59.525Z,45.09
2019-05-26T16:57:29.113Z,44.73
2019-05-26T16:59:58.781Z,44.38
2019-05-26T17:02:28.661Z,45.64
2019-05-26T17:04:58.431Z,45.56
2019-05-26T17:07:28.087Z,45.20
2019-05-26T17:09:57.895Z,45.22
2019-05-26T17:12:27.614Z,45.20
2019-05-26T17:15:00.333Z,45.61
2019-05-26T17:17:29.855Z,45.32
2019-05-26T17:19:59.918Z,45.52
2019-05-26T17:22:29.571Z,46.58
2019-05-26T17:25:02.388Z,46.64
2019-05-26T17:27:34.875Z,46.76
2019-05-26T17:30:06.590Z,46.59
2019-05-26T17:32:36.532Z,46.36
2019-05-26T17:35:08.294Z,46.46
2019-05-26T17:37:37.894Z,46.30
2019-05-26T17:40:09.640Z,46.78
2019-05-26T17:42:39.518Z,46.68
2019-05-26T17:45:10.101Z,46.84
2019-05-26T17:47:40.074Z,47.30
2019-05-26T17:50:10.846Z,47.62
2019-05-26T17:52:40.583Z,47.77
2019-05-26T17:55:11.118Z,47.99
2019-05-26T17:57:41.547Z,47.58
2019-05-26T18:00:13.926Z,47.37
2019-05-26T18:02:43.682Z,48.64
2019-05-26T18:05:14.537Z,48.56
2019-05-26T18:07:47.349Z,48.35
2019-05-26T18:10:17.199Z,48.91
2019-05-26T18:12:47.025Z,48.69
2019-05-26T18:15:16.902Z,48.84
2019-05-26T18:17:47.791Z,48.87
2019-05-26T18:20:19.004Z,49.53
2019-05-26T18:22:48.715Z,49.93
2019-05-26T18:25:18.386Z,51.00
2019-05-26T18:27:48.445Z,51.53
2019-05-26T18:30:19.086Z,53.05
2019-05-26T18:32:48.840Z,54.12
2019-05-26T18:35:19.166Z,54.94
2019-05-26T18:37:52.168Z,57.08
2019-05-26T18:40:20.422Z,58.58
2019-05-26T18:42:51.601Z,59.19
2019-05-26T18:45:21.320Z,60.71
2019-05-26T18:48:02.356Z,61.67
2019-05-26T18:50:22.315Z,63.09
2019-05-26T18:52:52.097Z,64.60
2019-05-26T18:55:21.912Z,64.89
2019-05-26T18:57:51.717Z,65.07
2019-05-26T19:00:21.716Z,65.74
2019-05-26T19:02:51.722Z,67.04
2019-05-26T19:05:32.858Z,68.10
2019-05-26T19:07:53.147Z,69.24
2019-05-26T19:10:22.967Z,69.59
2019-05-26T19:12:52.585Z,69.79
2019-05-26T19:15:22.226Z,71.31
2019-05-26T19:17:54.379Z,71.83
2019-05-26T19:20:27.969Z,71.25
2019-05-26T19:22:57.627Z,71.69
2019-05-26T19:25:28.417Z,72.55
2019-05-26T19:27:58.108Z,72.98
2019-05-26T19:30:27.718Z,72.79
2019-05-26T19:32:57.674Z,73.12
2019-05-26T19:35:34.679Z,74.48
2019-05-26T19:38:04.415Z,74.68
2019-05-26T19:40:34.081Z,75.65
2019-05-26T19:43:04.530Z,75.17
2019-05-26T19:45:34.235Z,76.43
2019-05-26T19:48:03.964Z,76.87
2019-05-26T19:50:33.855Z,76.76
2019-05-26T19:53:07.080Z,76.45
2019-05-26T19:55:37.136Z,77.08
2019-05-26T19:58:07.372Z,78.11
2019-05-26T20:00:37.201Z,79.43
2019-05-26T20:03:07.305Z,79.93
2019-05-26T20:05:37.200Z,80.73
2019-05-26T20:08:07.200Z,80.87
2019-05-26T20:10:37.200Z,81.92
2019-05-26T20:13:07.239Z,81.47
2019-05-26T20:15:37.063Z,80.87
2019-05-26T20:18:07.314Z,80.15
2019-05-26T20:20:39.121Z,79.28
2019-05-26T20:23:09.062Z,79.69
2019-05-26T20:25:38.873Z,80.12
2019-05-26T20:28:10.441Z,81.94
2019-05-26T20:30:40.449Z,83.58
2019-05-26T20:33:10.558Z,82.81
2019-05-26T20:35:41.361Z,82.17
2019-05-26T20:38:11.121Z,81.59
2019-05-26T20:40:41.040Z,81.75
2019-05-26T20:43:11.124Z,81.10
2019-05-26T20:45:42.357Z,81.64
2019-05-26T20:48:12.067Z,81.41
2019-05-26T20:50:41.939Z,81.22
2019-05-26T20:53:11.464Z,81.22
2019-05-26T20:55:41.145Z,80.96
2019-05-26T20:58:10.875Z,81.81
2019-05-26T21:00:40.547Z,81.24
2019-05-26T21:03:10.398Z,79.86
2019-05-26T21:05:39.973Z,78.94
2019-05-26T21:08:11.857Z,79.03
2019-05-26T21:10:42.907Z,78.79
2019-05-26T21:13:12.643Z,78.52
2019-05-26T21:15:42.175Z,78.88
2019-05-26T21:18:11.706Z,78.43
2019-05-26T21:20:41.266Z,78.49
2019-05-26T21:23:12.784Z,77.97
2019-05-26T21:25:42.106Z,77.42
2019-05-26T21:28:11.666Z,76.46
2019-05-26T21:30:41.364Z,75.64
2019-05-26T21:33:10.959Z,75.49
2019-05-26T21:35:40.644Z,75.77
2019-05-26T21:38:10.268Z,75.40
2019-05-26T21:40:40.838Z,75.00
2019-05-26T21:43:10.463Z,74.98
2019-05-26T21:45:44.665Z,74.72
2019-05-26T21:48:14.251Z,74.66
2019-05-26T21:50:43.929Z,74.48
2019-05-26T21:53:16.695Z,74.77
2019-05-26T21:55:46.407Z,74.35
2019-05-26T21:58:16.128Z,74.53
2019-05-26T22:00:49.133Z,75.21
2019-05-26T22:03:19.532Z,74.78
2019-05-26T22:05:51.102Z,74.08
2019-05-26T22:08:20.612Z,74.35
2019-05-26T22:10:51.899Z,74.18
2019-05-26T22:13:21.657Z,74.30
2019-05-26T22:15:51.169Z,73.50
2019-05-26T22:18:20.862Z,73.35
2019-05-26T22:20:50.550Z,72.80
2019-05-26T22:23:20.130Z,73.39
2019-05-26T22:25:49.681Z,73.37
2019-05-26T22:28:19.866Z,72.55
2019-05-26T22:30:49.390Z,71.96
2019-05-26T22:33:20.780Z,71.20
2019-05-26T22:35:50.511Z,69.92
2019-05-26T22:38:20.071Z,70.06
2019-05-26T22:40:49.682Z,68.57
2019-05-26T22:43:20.352Z,68.16
2019-05-26T22:45:50.037Z,67.30
2019-05-26T22:48:19.570Z,67.06
2019-05-26T22:50:52.244Z,67.32
2019-05-26T22:53:21.926Z,67.92
2019-05-26T22:58:20.602Z,71.05
2019-05-26T23:00:50.282Z,72.54
2019-05-26T23:03:19.808Z,73.71
2019-05-26T23:05:49.425Z,74.53
2019-05-26T23:08:19.032Z,76.08
2019-05-26T23:10:48.620Z,77.18
2019-05-26T23:13:18.605Z,77.93
2019-05-26T23:15:48.121Z,78.55
2019-05-26T23:18:17.703Z,79.43
2019-05-26T23:20:47.397Z,79.91
2019-05-26T23:23:16.928Z,80.67
2019-05-26T23:25:46.502Z,81.43
2019-05-26T23:28:16.086Z,81.09
2019-05-26T23:30:46.147Z,81.31
2019-05-26T23:33:15.673Z,81.58
2019-05-26T23:35:45.364Z,81.42
2019-05-26T23:38:15.470Z,81.28
2019-05-26T23:40:45.062Z,81.72
2019-05-26T23:43:14.607Z,81.89
2019-05-26T23:45:44.158Z,82.10
2019-05-26T23:48:15.927Z,82.49
2019-05-26T23:50:51.711Z,82.43
2019-05-26T23:53:21.290Z,82.18
2019-05-26T23:55:51.577Z,82.29
2019-05-26T23:58:21.385Z,83.15
